Main page
METAR-TAF:

METAR-TAF

Airports :

King Khalid Air Base

Khamis Mushait, Saudi Arabia

latitude: 18-18N, longitude: 042-48E, elevation: 2066 m

Current weather observation

The report was made 1 hour and 7 minutes ago, at 03:00 UTC
Calm wind
Temperature 15°C
Humidity 29%
Pressure 1024 hPa
Visibility 10 km or more
no clouds below 1500 m and no cumulonimbus

METAR: OEKM 260300Z 00000KT CAVOK 15/M03 Q1024 NOSIG

Time: 07:07 (04:07 UTC)

Forecast

The report was made 5 hours and 7 minutes ago, at 23:00 UTC
Forecast valid from 26 at 00 UTC to 27 at 06 UTC
Wind 10 kt from the Northeast
Visibility 10 km or more
no clouds below 1500 m and no cumulonimbus
Becoming
from 26 at 06 UTC to 26 at 08 UTC
Wind 18 kt from the East/Northeast
Visibility 10 km or more
Few clouds at a height of 3000 ft
Becoming
from 26 at 18 UTC to 26 at 20 UTC
Wind 8 kt from the Northeast

TAF: OEKM 252300Z 2600/2706 04010KT CAVOK BECMG 2606/2608 06018KT 9999 FEW030 BECMG 2618/2620 05008KT

Weather observations and forecasts of more than 4000 airports (METAR and TAF reports).

The available stations are represented by yellow and red dots on the map.

Hover mouse over dot to see the name of the station.

Then click to see weather observations and forecasts.

To change the map : click on the green buttons with a black cross to zoom in, on the green button with a dash to zoom out, or on the green arrows for adjacent maps.


METAR-TAF: